Time;durP1;ratioP1;P1;durP2;ratioP2;P2;SDS_P1;SDS_P2;PMS_P1;PMS_P2;Temp;Humidity;BMP_temperature;BMP_pressure;BME280_temperature;BME280_humidity;BME280_pressure;Samples;Min_cycle;Max_cycle;Signal;HPM_P1;HPM_P2
2024/04/10 00:00:45;;;;;;;3.42;1.45;;;;;;;;;;11190317;26;20046;-59
2024/04/10 00:05:45;;;;;;;4.55;1.60;;;;;;;;;;11190743;26;20029;-59
2024/04/10 00:10:45;;;;;;;8.00;2.35;;;;;;;;;;11189397;26;20025;-59
2024/04/10 00:15:58;;;;;;;1.80;1.70;;;;;;;;;;11191324;26;20046;-60
2024/04/10 00:20:59;;;;;;;4.38;1.48;;;;;;;;;;11190671;26;20485;-58
2024/04/10 00:26:00;;;;;;;2.20;1.58;;;;;;;;;;11186705;26;20038;-59
2024/04/10 00:31:06;;;;;;;2.03;1.50;;;;;;;;;;11185470;26;20061;-58
2024/04/10 00:36:07;;;;;;;1.70;1.30;;;;;;;;;;11193552;26;20029;-57
2024/04/10 00:41:08;;;;;;;1.90;1.67;;;;;;;;;;11191835;25;20029;-58
2024/04/10 00:46:14;;;;;;;3.10;1.67;;;;;;;;;;11192597;26;20376;-59
2024/04/10 00:51:15;;;;;;;3.53;2.03;;;;;;;;;;11188111;26;20033;-59
2024/04/10 00:56:16;;;;;;;3.97;3.13;;;;;;;;;;11189115;26;20046;-59
2024/04/10 01:01:21;;;;;;;4.25;2.60;;;;;;;;;;11193419;26;20026;-59
2024/04/10 01:06:22;;;;;;;3.10;2.80;;;;;;;;;;11193871;26;20037;-59
2024/04/10 01:11:22;;;;;;;2.97;2.22;;;;;;;;;;11192965;26;20041;-60
2024/04/10 01:16:25;;;;;;;1.67;1.58;;;;;;;;;;11195350;25;20393;-59
2024/04/10 01:21:25;;;;;;;2.47;2.10;;;;;;;;;;11189600;26;20029;-59
2024/04/10 01:26:28;;;;;;;4.00;2.50;;;;;;;;;;11195170;26;20034;-60
2024/04/10 01:31:30;;;;;;;6.85;2.20;;;;;;;;;;11190133;26;20030;-59
2024/04/10 01:36:31;;;;;;;3.10;2.13;;;;;;;;;;11188476;26;20380;-59
2024/04/10 01:41:34;;;;;;;2.60;2.00;;;;;;;;;;11184275;26;20037;-58
2024/04/10 01:46:34;;;;;;;3.15;1.95;;;;;;;;;;11184133;26;20027;-58
2024/04/10 01:51:35;;;;;;;6.00;2.25;;;;;;;;;;11188377;26;20273;-59
2024/04/10 01:56:38;;;;;;;3.60;2.17;;;;;;;;;;11185034;26;20022;-59
2024/04/10 02:01:39;;;;;;;3.28;1.98;;;;;;;;;;11189842;26;20025;-59
2024/04/10 02:06:39;;;;;;;2.97;2.33;;;;;;;;;;11187987;26;20369;-59
2024/04/10 02:11:42;;;;;;;4.45;2.67;;;;;;;;;;11190803;25;20021;-59
2024/04/10 02:16:43;;;;;;;2.58;2.33;;;;;;;;;;11177617;25;20037;-58
2024/04/10 02:21:44;;;;;;;3.20;2.50;;;;;;;;;;11184320;26;20025;-59
2024/04/10 02:26:47;;;;;;;3.13;2.83;;;;;;;;;;11193958;26;20029;-58
2024/04/10 02:31:47;;;;;;;8.93;3.22;;;;;;;;;;11189704;26;20030;-58
2024/04/10 02:36:48;;;;;;;4.97;2.72;;;;;;;;;;11038782;26;20016;-59
2024/04/10 02:41:51;;;;;;;4.53;2.60;;;;;;;;;;11067566;26;19999;-58
2024/04/10 02:46:51;;;;;;;4.43;2.03;;;;;;;;;;11031246;26;20003;-58
2024/04/10 02:51:52;;;;;;;4.25;1.95;;;;;;;;;;11035251;26;20010;-59
2024/04/10 02:56:55;;;;;;;3.70;1.90;;;;;;;;;;11032349;26;19999;-57
2024/04/10 03:01:56;;;;;;;4.05;2.28;;;;;;;;;;11037093;26;20009;-58
2024/04/10 03:06:56;;;;;;;3.10;1.52;;;;;;;;;;11036998;26;20002;-59
2024/04/10 03:11:59;;;;;;;2.60;1.98;;;;;;;;;;11053413;26;20028;-59
2024/04/10 03:17:00;;;;;;;3.58;1.80;;;;;;;;;;11050517;26;20055;-59
2024/04/10 03:22:00;;;;;;;3.97;1.70;;;;;;;;;;11051420;26;20039;-59
2024/04/10 03:27:03;;;;;;;3.63;1.90;;;;;;;;;;11051320;26;20039;-58
2024/04/10 03:32:03;;;;;;;4.63;2.10;;;;;;;;;;11056044;26;20046;-58
2024/04/10 03:37:04;;;;;;;5.60;2.15;;;;;;;;;;11191061;26;20032;-57
2024/04/10 03:42:07;;;;;;;2.47;2.10;;;;;;;;;;11183279;26;20134;-59
2024/04/10 03:47:10;;;;;;;3.30;2.05;;;;;;;;;;11184784;26;20483;-58
2024/04/10 03:52:10;;;;;;;9.55;2.40;;;;;;;;;;11192257;26;20048;-58
2024/04/10 03:57:13;;;;;;;2.72;2.20;;;;;;;;;;11192242;26;20058;-58
2024/04/10 04:02:13;;;;;;;5.20;2.28;;;;;;;;;;11186105;26;20053;-59
2024/04/10 04:07:14;;;;;;;4.65;2.00;;;;;;;;;;11192811;26;20034;-59
2024/04/10 04:12:17;;;;;;;4.55;2.10;;;;;;;;;;11191685;26;20233;-59
2024/04/10 04:17:22;;;;;;;7.63;2.10;;;;;;;;;;11191146;26;20030;-58
2024/04/10 04:22:23;;;;;;;18.05;4.82;;;;;;;;;;11192948;26;20597;-59
2024/04/10 04:27:32;;;;;;;5.22;3.67;;;;;;;;;;11191636;26;20029;-59
2024/04/10 04:32:34;;;;;;;6.53;4.00;;;;;;;;;;11185251;26;20037;-59
2024/04/10 04:37:34;;;;;;;4.75;3.17;;;;;;;;;;11174455;26;20038;-56
2024/04/10 04:42:37;;;;;;;8.38;3.95;;;;;;;;;;11170065;26;20008;-59
2024/04/10 04:47:38;;;;;;;9.00;4.60;;;;;;;;;;11175853;26;20002;-59
2024/04/10 04:52:38;;;;;;;10.50;5.00;;;;;;;;;;11185945;26;20478;-57
2024/04/10 04:57:41;;;;;;;11.60;5.20;;;;;;;;;;11185410;26;20013;-58
2024/04/10 05:02:41;;;;;;;11.57;5.00;;;;;;;;;;11187875;25;20022;-59
2024/04/10 05:07:42;;;;;;;21.02;6.43;;;;;;;;;;11178486;26;20037;-57
2024/04/10 05:12:45;;;;;;;10.65;6.18;;;;;;;;;;11179856;26;20026;-59
2024/04/10 05:17:48;;;;;;;18.05;6.90;;;;;;;;;;11165746;26;20030;-58
2024/04/10 05:22:49;;;;;;;15.00;5.13;;;;;;;;;;11185392;26;20029;-58
2024/04/10 05:27:52;;;;;;;11.63;4.65;;;;;;;;;;11180773;26;20440;-59
2024/04/10 05:32:53;;;;;;;8.13;3.80;;;;;;;;;;11181637;26;20030;-58
2024/04/10 05:37:53;;;;;;;18.52;6.25;;;;;;;;;;11183771;26;20002;-58
2024/04/10 05:42:56;;;;;;;10.70;4.82;;;;;;;;;;11180949;26;19997;-59
2024/04/10 05:47:57;;;;;;;8.98;5.00;;;;;;;;;;11179523;25;20415;-59
2024/04/10 05:52:57;;;;;;;11.90;4.82;;;;;;;;;;11187293;25;20025;-59
2024/04/10 05:58:04;;;;;;;5.73;3.27;;;;;;;;;;11190278;26;20029;-59
2024/04/10 06:03:04;;;;;;;9.10;3.85;;;;;;;;;;11186817;26;20043;-59
2024/04/10 06:08:05;;;;;;;7.65;3.28;;;;;;;;;;11189353;26;20487;-59
2024/04/10 06:13:08;;;;;;;6.85;3.65;;;;;;;;;;11189642;26;20038;-58
2024/04/10 06:18:08;;;;;;;9.73;4.13;;;;;;;;;;11186192;26;20039;-58
2024/04/10 06:23:08;;;;;;;15.00;5.68;;;;;;;;;;11194247;26;20022;-59
2024/04/10 06:28:12;;;;;;;12.95;4.03;;;;;;;;;;11189598;26;20030;-59
2024/04/10 06:33:14;;;;;;;4.07;3.50;;;;;;;;;;11190188;26;20030;-59
2024/04/10 06:38:15;;;;;;;5.95;4.05;;;;;;;;;;11189016;26;20618;-57
2024/04/10 06:43:18;;;;;;;8.43;3.85;;;;;;;;;;11189361;26;20046;-60
2024/04/10 06:48:18;;;;;;;9.38;3.45;;;;;;;;;;11172182;26;20033;-59
2024/04/10 06:53:18;;;;;;;7.05;4.10;;;;;;;;;;11186628;26;20026;-58
2024/04/10 06:58:21;;;;;;;5.65;3.80;;;;;;;;;;11186267;26;20021;-59
2024/04/10 07:03:22;;;;;;;6.70;3.88;;;;;;;;;;11185381;26;20026;-56
2024/04/10 07:08:22;;;;;;;6.88;3.75;;;;;;;;;;11186447;25;20042;-54
2024/04/10 07:13:25;;;;;;;6.32;3.50;;;;;;;;;;11192840;26;20039;-56
2024/04/10 07:18:26;;;;;;;7.32;3.13;;;;;;;;;;11186941;26;20039;-58
2024/04/10 07:23:29;;;;;;;7.00;3.30;;;;;;;;;;11188246;26;20030;-58
2024/04/10 07:28:32;;;;;;;13.32;3.75;;;;;;;;;;11187156;26;20037;-56
2024/04/10 07:33:32;;;;;;;6.45;3.45;;;;;;;;;;11183983;26;20037;-58
2024/04/10 07:38:33;;;;;;;5.28;2.55;;;;;;;;;;11184806;26;20479;-58
2024/04/10 07:43:36;;;;;;;3.53;1.70;;;;;;;;;;11186121;26;20034;-58
2024/04/10 07:48:37;;;;;;;6.05;2.30;;;;;;;;;;11180107;26;20022;-59
2024/04/10 07:53:42;;;;;;;4.78;2.70;;;;;;;;;;11189156;26;20051;-57
2024/04/10 07:58:45;;;;;;;5.00;2.08;;;;;;;;;;11194277;25;20030;-58
2024/04/10 08:03:45;;;;;;;5.28;2.53;;;;;;;;;;11195400;26;20030;-59
2024/04/10 08:08:46;;;;;;;6.25;2.15;;;;;;;;;;11188761;26;20041;-58
2024/04/10 08:13:50;;;;;;;4.15;2.15;;;;;;;;;;11193394;26;20038;-59
2024/04/10 08:18:50;;;;;;;6.00;2.60;;;;;;;;;;11188621;26;20113;-58
2024/04/10 08:23:51;;;;;;;4.53;2.58;;;;;;;;;;11189009;26;20030;-59
2024/04/10 08:28:54;;;;;;;4.93;1.98;;;;;;;;;;11193358;26;20026;-58
2024/04/10 08:33:55;;;;;;;4.10;1.58;;;;;;;;;;11191497;26;20026;-58
2024/04/10 08:38:57;;;;;;;9.27;2.50;;;;;;;;;;11191451;26;20038;-55
2024/04/10 08:44:00;;;;;;;3.60;1.92;;;;;;;;;;11193977;26;20031;-58
2024/04/10 08:49:02;;;;;;;4.13;1.65;;;;;;;;;;11188498;26;20030;-59
2024/04/10 08:54:04;;;;;;;6.90;1.90;;;;;;;;;;11190603;26;20039;-59
2024/04/10 08:59:07;;;;;;;4.13;2.13;;;;;;;;;;11185500;26;20034;-59
2024/04/10 09:04:08;;;;;;;1.90;1.80;;;;;;;;;;11180761;26;20028;-59
2024/04/10 09:09:10;;;;;;;3.30;2.05;;;;;;;;;;11189315;26;20043;-60
2024/04/10 09:14:15;;;;;;;6.28;1.58;;;;;;;;;;11187818;26;20030;-59
2024/04/10 09:19:16;;;;;;;3.75;1.90;;;;;;;;;;11188723;25;20642;-59
2024/04/10 09:24:16;;;;;;;3.55;1.70;;;;;;;;;;11190060;26;20025;-59
2024/04/10 09:29:24;;;;;;;2.97;1.50;;;;;;;;;;11191728;26;20379;-59
2024/04/10 09:34:25;;;;;;;2.55;1.75;;;;;;;;;;11185203;26;20042;-59
2024/04/10 09:39:26;;;;;;;3.33;1.73;;;;;;;;;;11191277;26;20043;-59
2024/04/10 09:44:31;;;;;;;1.73;1.55;;;;;;;;;;11187408;26;20057;-59
2024/04/10 09:49:37;;;;;;;4.45;1.52;;;;;;;;;;11189739;26;20507;-59
2024/04/10 09:54:38;;;;;;;5.10;2.00;;;;;;;;;;11192280;26;20029;-59
2024/04/10 09:59:42;;;;;;;2.28;1.40;;;;;;;;;;11189470;26;20033;-59
2024/04/10 10:04:47;;;;;;;3.30;1.60;;;;;;;;;;11188355;26;20029;-60
2024/04/10 10:09:48;;;;;;;2.85;2.17;;;;;;;;;;11181276;26;20041;-59
2024/04/10 10:14:51;;;;;;;1.88;1.30;;;;;;;;;;11186374;26;20029;-57
2024/04/10 10:19:51;;;;;;;3.47;2.28;;;;;;;;;;11188042;26;20034;-59
2024/04/10 10:24:58;;;;;;;4.63;1.52;;;;;;;;;;11191450;26;20475;-59
2024/04/10 10:30:10;;;;;;;1.77;1.42;;;;;;;;;;11173296;26;20030;-59
2024/04/10 10:35:11;;;;;;;3.08;1.40;;;;;;;;;;11190101;26;20033;-59
2024/04/10 10:40:18;;;;;;;3.35;1.58;;;;;;;;;;11189224;25;20022;-59
2024/04/10 10:46:57;;;;;;;2.63;1.60;;;;;;;;;;11305591;25;20334;-58
2024/04/10 10:51:59;;;;;;;2.78;1.45;;;;;;;;;;11216845;25;20034;-59
2024/04/10 10:57:04;;;;;;;6.30;1.42;;;;;;;;;;11224315;25;20039;-59
2024/04/10 11:02:15;;;;;;;4.47;1.50;;;;;;;;;;11227187;25;20041;-59
2024/04/10 11:07:19;;;;;;;3.97;1.80;;;;;;;;;;11220862;25;20025;-60
2024/04/10 11:12:21;;;;;;;6.22;1.80;;;;;;;;;;11225424;25;20029;-59
2024/04/10 11:17:29;;;;;;;2.90;1.63;;;;;;;;;;11226275;25;20038;-59
2024/04/10 11:22:29;;;;;;;3.08;1.40;;;;;;;;;;11224550;25;20029;-60
2024/04/10 11:27:30;;;;;;;3.97;2.00;;;;;;;;;;11227273;25;20115;-58
2024/04/10 11:32:33;;;;;;;5.75;1.65;;;;;;;;;;11216453;25;20038;-58
2024/04/10 11:37:33;;;;;;;4.35;1.88;;;;;;;;;;11223727;25;20042;-59
2024/04/10 11:42:33;;;;;;;6.97;1.90;;;;;;;;;;11223456;25;20035;-59
2024/04/10 11:47:37;;;;;;;3.13;1.55;;;;;;;;;;11224499;25;20038;-59
2024/04/10 11:52:38;;;;;;;8.45;1.98;;;;;;;;;;11225384;25;20026;-59
2024/04/10 11:57:38;;;;;;;2.00;1.50;;;;;;;;;;11194567;25;20025;-59
2024/04/10 12:02:42;;;;;;;3.78;2.22;;;;;;;;;;11196667;25;20029;-57
2024/04/10 12:07:43;;;;;;;;;;;;;;;;;;11193024;25;20042;-58
2024/04/10 12:12:49;;;;;;;6.97;1.88;;;;;;;;;;11191845;25;19947;-58
2024/04/10 12:17:53;;;;;;;3.47;2.05;;;;;;;;;;11182237;25;20030;-59
2024/04/10 12:22:53;;;;;;;11.20;2.77;;;;;;;;;;11182980;25;20042;-58
2024/04/10 12:27:56;;;;;;;3.57;2.40;;;;;;;;;;11182250;25;20291;-60
2024/04/10 12:32:59;;;;;;;2.67;1.73;;;;;;;;;;11185340;25;20038;-60
2024/04/10 12:38:06;;;;;;;5.77;2.03;;;;;;;;;;11186125;25;20042;-60
2024/04/10 12:43:09;;;;;;;4.97;2.20;;;;;;;;;;11190304;25;20034;-58
2024/04/10 12:48:12;;;;;;;6.93;2.47;;;;;;;;;;11191412;25;20041;-58
2024/04/10 12:53:13;;;;;;;6.97;1.85;;;;;;;;;;11203093;25;20065;-58
2024/04/10 12:58:13;;;;;;;11.57;2.47;;;;;;;;;;11191335;25;20466;-59
2024/04/10 13:03:18;;;;;;;3.53;2.53;;;;;;;;;;11183537;25;20034;-60
2024/04/10 13:08:19;;;;;;;9.68;2.00;;;;;;;;;;11180433;25;20030;-59
2024/04/10 13:13:19;;;;;;;2.83;1.80;;;;;;;;;;11188335;25;20026;-59
2024/04/10 13:18:37;;;;;;;5.40;1.60;;;;;;;;;;11187546;25;20026;-59
2024/04/10 13:23:38;;;;;;;2.70;1.70;;;;;;;;;;11185037;25;20025;-59
2024/04/10 13:28:39;;;;;;;5.78;1.90;;;;;;;;;;11188726;25;20034;-60
2024/04/10 13:33:42;;;;;;;5.18;1.50;;;;;;;;;;11190759;25;20038;-59
2024/04/10 13:38:43;;;;;;;5.72;2.10;;;;;;;;;;11187942;25;20029;-58
2024/04/10 13:43:45;;;;;;;4.82;1.80;;;;;;;;;;11182057;25;20510;-59
2024/04/10 13:48:47;;;;;;;3.85;1.98;;;;;;;;;;11177090;25;20034;-59
2024/04/10 13:53:48;;;;;;;3.63;2.20;;;;;;;;;;11179878;25;20434;-59
2024/04/10 13:58:48;;;;;;;6.15;2.80;;;;;;;;;;11185788;25;20034;-58
2024/04/10 14:03:53;;;;;;;4.30;2.53;;;;;;;;;;11188755;25;20136;-60
2024/04/10 14:08:56;;;;;;;6.70;2.25;;;;;;;;;;11180924;25;20526;-60
2024/04/10 14:13:57;;;;;;;4.72;2.03;;;;;;;;;;11183917;25;20045;-59
2024/04/10 14:19:00;;;;;;;5.80;2.47;;;;;;;;;;11193434;25;20692;-59
2024/04/10 14:24:01;;;;;;;7.03;2.20;;;;;;;;;;11185955;25;20371;-60
2024/04/10 14:29:06;;;;;;;;;;;;;;;;;;11190798;25;20049;-59
2024/04/10 14:34:08;;;;;;;3.15;2.15;;;;;;;;;;11181556;25;19952;-59
2024/04/10 14:39:10;;;;;;;2.77;2.33;;;;;;;;;;11178968;25;20539;-58
2024/04/10 14:49:26;;;;;;;10.75;2.30;;;;;;;;;;11168541;25;20034;-58
2024/04/10 14:54:26;;;;;;;6.18;2.03;;;;;;;;;;11185657;25;20029;-59
2024/04/10 14:59:27;;;;;;;6.25;2.17;;;;;;;;;;11186004;25;20027;-58
2024/04/10 15:04:30;;;;;;;2.78;2.33;;;;;;;;;;11183134;25;20042;-59
2024/04/10 15:09:30;;;;;;;10.83;2.30;;;;;;;;;;11184763;25;20025;-59
2024/04/10 15:14:35;;;;;;;7.05;2.13;;;;;;;;;;11176396;25;20491;-60
2024/04/10 15:19:38;;;;;;;8.85;2.22;;;;;;;;;;11185167;25;20026;-58
2024/04/10 15:24:39;;;;;;;7.27;1.97;;;;;;;;;;11185115;25;20043;-60
2024/04/10 15:29:39;;;;;;;9.73;2.15;;;;;;;;;;11185046;25;20386;-59
2024/04/10 15:34:44;;;;;;;5.25;2.00;;;;;;;;;;11187062;25;20043;-60
2024/04/10 15:39:45;;;;;;;4.18;2.05;;;;;;;;;;11189698;25;20022;-60
2024/04/10 15:44:45;;;;;;;3.80;2.08;;;;;;;;;;11186722;25;20116;-60
2024/04/10 15:49:48;;;;;;;8.13;2.08;;;;;;;;;;11189016;25;20041;-60
2024/04/10 15:54:49;;;;;;;5.53;3.13;;;;;;;;;;11192941;25;20026;-59
2024/04/10 15:59:49;;;;;;;3.70;2.75;;;;;;;;;;11199175;25;20492;-59
2024/04/10 16:04:52;;;;;;;3.75;2.03;;;;;;;;;;11191289;25;20026;-58
2024/04/10 16:09:53;;;;;;;9.55;2.63;;;;;;;;;;11183722;25;20038;-59
2024/04/10 16:14:53;;;;;;;5.03;2.42;;;;;;;;;;11186886;25;20037;-60
2024/04/10 16:19:57;;;;;;;7.20;3.60;;;;;;;;;;11179450;25;20001;-60
2024/04/10 16:24:57;;;;;;;8.10;4.83;;;;;;;;;;11187567;25;19998;-60
2024/04/10 16:29:58;;;;;;;7.05;4.38;;;;;;;;;;11198323;25;20019;-60
2024/04/10 16:35:01;;;;;;;15.48;7.03;;;;;;;;;;11220420;25;20009;-59
2024/04/10 16:40:02;;;;;;;7.27;4.67;;;;;;;;;;11186032;25;20038;-59
2024/04/10 16:45:02;;;;;;;8.32;4.30;;;;;;;;;;11190797;25;20715;-58
2024/04/10 16:50:05;;;;;;;6.65;3.25;;;;;;;;;;11188574;25;20033;-59
2024/04/10 16:55:06;;;;;;;14.65;4.40;;;;;;;;;;11198730;25;20476;-59
2024/04/10 17:00:07;;;;;;;6.57;3.22;;;;;;;;;;11197426;25;20339;-58
2024/04/10 17:05:11;;;;;;;12.27;4.32;;;;;;;;;;11188476;25;20041;-59
2024/04/10 17:10:11;;;;;;;7.60;4.00;;;;;;;;;;11186609;25;20053;-59
2024/04/10 17:15:12;;;;;;;7.18;4.22;;;;;;;;;;11189836;25;20026;-59
2024/04/10 17:25:31;;;;;;;6.90;2.95;;;;;;;;;;11194505;25;20030;-58
2024/04/10 17:30:31;;;;;;;3.53;2.53;;;;;;;;;;11193265;25;20507;-59
2024/04/10 17:35:34;;;;;;;10.70;4.03;;;;;;;;;;11188063;25;20029;-58
2024/04/10 17:40:34;;;;;;;9.48;3.45;;;;;;;;;;11190419;25;20038;-58
2024/04/10 17:45:37;;;;;;;7.60;3.05;;;;;;;;;;11186538;25;20483;-58
2024/04/10 17:50:42;;;;;;;9.38;2.72;;;;;;;;;;11200572;25;20017;-59
2024/04/10 17:55:45;;;;;;;4.93;2.45;;;;;;;;;;11186914;25;20021;-59
2024/04/10 18:00:45;;;;;;;5.47;2.80;;;;;;;;;;11180977;25;20364;-58
2024/04/10 18:05:48;;;;;;;4.03;1.92;;;;;;;;;;11186517;25;20385;-59
2024/04/10 18:10:49;;;;;;;13.60;2.85;;;;;;;;;;11187821;25;20033;-58
2024/04/10 18:15:49;;;;;;;7.82;2.20;;;;;;;;;;11196565;25;20044;-58
2024/04/10 18:20:59;;;;;;;1.92;1.73;;;;;;;;;;11189461;25;20033;-58
2024/04/10 18:26:00;;;;;;;29.08;4.03;;;;;;;;;;11186708;25;20025;-57
2024/04/10 18:31:01;;;;;;;3.15;2.20;;;;;;;;;;11188990;25;20033;-58
2024/04/10 18:36:06;;;;;;;6.50;2.17;;;;;;;;;;11179429;25;20375;-58
2024/04/10 18:41:08;;;;;;;4.63;2.30;;;;;;;;;;11179514;25;20381;-59
2024/04/10 18:46:09;;;;;;;4.15;2.28;;;;;;;;;;11180977;25;20034;-59
2024/04/10 18:51:16;;;;;;;3.05;2.30;;;;;;;;;;11186577;25;20042;-59
2024/04/10 18:56:16;;;;;;;3.47;2.78;;;;;;;;;;11184445;25;20377;-59
2024/04/10 19:01:17;;;;;;;2.83;2.53;;;;;;;;;;11181375;25;20026;-58
2024/04/10 19:06:22;;;;;;;3.65;2.80;;;;;;;;;;11191312;25;20041;-57
2024/04/10 19:11:22;;;;;;;5.13;3.15;;;;;;;;;;11189041;25;20034;-56
2024/04/10 19:16:23;;;;;;;3.40;2.75;;;;;;;;;;11187980;25;20029;-57
2024/04/10 19:21:26;;;;;;;3.72;3.10;;;;;;;;;;11181399;25;20020;-58
2024/04/10 19:26:27;;;;;;;3.77;3.37;;;;;;;;;;11182772;25;19994;-58
2024/04/10 19:31:27;;;;;;;5.40;3.55;;;;;;;;;;11178205;25;20001;-54
2024/04/10 19:36:30;;;;;;;5.65;3.65;;;;;;;;;;11191622;25;20034;-57
2024/04/10 19:41:31;;;;;;;4.45;4.00;;;;;;;;;;11192973;25;20029;-57
2024/04/10 19:46:32;;;;;;;5.80;3.78;;;;;;;;;;11191675;25;20026;-58
2024/04/10 19:51:35;;;;;;;3.92;3.53;;;;;;;;;;11190376;25;20042;-56
2024/04/10 19:56:36;;;;;;;5.35;3.88;;;;;;;;;;11182918;25;20022;-54
2024/04/10 20:01:36;;;;;;;6.50;4.22;;;;;;;;;;11193147;25;20081;-57
2024/04/10 20:06:39;;;;;;;5.80;4.32;;;;;;;;;;11185685;25;20034;-57
2024/04/10 20:11:39;;;;;;;7.45;5.13;;;;;;;;;;11182642;25;20476;-57
2024/04/10 20:16:40;;;;;;;7.00;4.43;;;;;;;;;;11181302;25;20042;-57
2024/04/10 20:21:43;;;;;;;7.35;4.53;;;;;;;;;;11190382;25;20038;-58
2024/04/10 20:26:43;;;;;;;7.07;5.65;;;;;;;;;;11190421;25;20033;-58
2024/04/10 20:31:44;;;;;;;6.43;5.28;;;;;;;;;;11189830;25;20584;-57
2024/04/10 20:36:47;;;;;;;7.25;5.38;;;;;;;;;;11192707;25;20053;-57
2024/04/10 20:41:47;;;;;;;5.68;5.07;;;;;;;;;;11190635;25;20033;-58
2024/04/10 20:46:48;;;;;;;7.80;4.63;;;;;;;;;;11187685;25;20038;-52
2024/04/10 20:51:51;;;;;;;6.90;5.13;;;;;;;;;;11197584;25;20030;-54
2024/04/10 20:56:51;;;;;;;8.45;5.30;;;;;;;;;;11196297;25;20397;-57
2024/04/10 21:01:51;;;;;;;6.13;5.47;;;;;;;;;;11181816;25;20487;-55
2024/04/10 22:10:41;;;;;;;6.45;5.13;;;;;;;;;;11189706;25;20021;-58
2024/04/10 22:15:47;;;;;;;6.30;5.50;;;;;;;;;;11186933;25;20030;-58
2024/04/10 22:26:09;;;;;;;8.43;5.22;;;;;;;;;;11191162;25;20052;-58
2024/04/10 22:31:10;;;;;;;9.52;5.80;;;;;;;;;;11186481;25;20026;-56
2024/04/10 22:36:10;;;;;;;12.95;6.50;;;;;;;;;;11189535;25;20031;-58
2024/04/10 22:41:13;;;;;;;6.85;5.68;;;;;;;;;;11186454;25;20030;-58
2024/04/10 22:46:13;;;;;;;7.35;4.88;;;;;;;;;;11190353;25;20043;-59
2024/04/10 22:51:14;;;;;;;6.30;5.15;;;;;;;;;;11186859;25;20025;-58
2024/04/10 22:56:17;;;;;;;6.13;4.57;;;;;;;;;;11187951;25;20029;-57
2024/04/10 23:01:18;;;;;;;6.30;5.22;;;;;;;;;;11189850;25;20039;-58
2024/04/10 23:06:18;;;;;;;6.13;5.43;;;;;;;;;;11186396;25;20029;-58
2024/04/10 23:11:22;;;;;;;4.78;4.28;;;;;;;;;;11184768;25;20022;-57
2024/04/10 23:16:22;;;;;;;6.10;4.85;;;;;;;;;;11178381;25;20483;-58
2024/04/10 23:21:22;;;;;;;6.07;4.93;;;;;;;;;;11186539;25;20030;-58
2024/04/10 23:26:25;;;;;;;6.50;4.68;;;;;;;;;;11183682;25;20022;-58
2024/04/10 23:31:27;;;;;;;9.63;5.40;;;;;;;;;;11180124;25;20022;-54
2024/04/10 23:36:28;;;;;;;7.93;4.05;;;;;;;;;;11181307;25;20380;-58
2024/04/10 23:41:31;;;;;;;7.85;4.35;;;;;;;;;;11181051;25;20370;-58
2024/04/10 23:46:31;;;;;;;6.70;4.47;;;;;;;;;;11183329;25;20475;-58
2024/04/10 23:51:31;;;;;;;8.32;4.78;;;;;;;;;;11188485;25;20487;-59
2024/04/10 23:56:34;;;;;;;6.40;4.05;;;;;;;;;;11191543;25;20033;-59
